Terminal Aerodrome Forecast
Issued by NWS

Current Version | Previous Version | Text Only | Print | Product List | Glossary On
Versions: 1 2 3 4 5 6 7 8 9 10 11 12 13 14 15 16 17 18
000
FTUS41 KGYX 162320
TAFAUG
TAF
KAUG 162320Z 1700/1724 00000KT P6SM OVC100
     FM170300 00000KT P6SM OVC045
     FM170600 00000KT 3/4SM -SN OVC015
     FM170900 36003KT 1/2SM SN OVC007
     FM172300 35003KT 1 1/2SM -SN BR OVC003=

USA.gov is the U.S. government's official web portal to all federal, state and local government web resources and services.